Time;durP1;ratioP1;P1;durP2;ratioP2;P2;SDS_P1;SDS_P2;PMS_P1;PMS_P2;Temp;Humidity;BMP_temperature;BMP_pressure;BME280_temperature;BME280_humidity;BME280_pressure;Samples;Min_cycle;Max_cycle;Signal;HPM_P1;HPM_P2
2024/04/19 00:02:12;;;;;;;5.28;3.40;;;8.00;99.90;;;;;;5408745;26;19999;-78
2024/04/19 00:04:38;;;;;;;6.20;3.92;;;7.80;99.90;;;;;;5395805;26;20529;-78
2024/04/19 00:07:03;;;;;;;7.90;4.10;;;7.90;99.90;;;;;;5400121;26;20460;-79
2024/04/19 00:09:29;;;;;;;11.70;3.85;;;7.90;99.90;;;;;;5412619;26;20041;-81
2024/04/19 00:11:54;;;;;;;6.90;4.03;;;7.90;99.90;;;;;;5411139;26;20005;-78
2024/04/19 00:14:20;;;;;;;6.28;3.60;;;7.70;99.90;;;;;;5412369;26;19996;-80
2024/04/19 00:16:45;;;;;;;7.78;3.72;;;7.40;99.90;;;;;;5408977;26;20007;-81
2024/04/19 00:19:11;;;;;;;5.35;3.30;;;7.80;99.90;;;;;;5411598;26;20060;-77
2024/04/19 00:21:36;;;;;;;6.90;3.50;;;7.70;99.90;;;;;;5403678;26;20011;-81
2024/04/19 00:24:02;;;;;;;12.00;3.78;;;7.80;99.90;;;;;;5412357;26;20072;-80
2024/04/19 00:26:27;;;;;;;6.00;3.58;;;7.80;99.90;;;;;;5410730;26;20007;-81
2024/04/19 00:28:53;;;;;;;6.30;3.90;;;7.80;99.90;;;;;;5414470;26;20430;-79
2024/04/19 00:31:19;;;;;;;9.35;4.05;;;7.90;99.90;;;;;;5408368;26;20024;-78
2024/04/19 00:33:45;;;;;;;7.55;3.95;;;7.60;99.90;;;;;;5405553;26;19996;-80
2024/04/19 00:36:10;;;;;;;5.97;3.75;;;7.60;99.90;;;;;;5402365;26;20098;-79
2024/04/19 00:38:36;;;;;;;6.85;4.13;;;7.60;99.90;;;;;;5406333;26;20078;-80
2024/04/19 00:41:02;;;;;;;7.70;3.83;;;7.60;99.90;;;;;;5403651;26;20467;-79
2024/04/19 00:43:27;;;;;;;5.43;3.38;;;7.50;99.90;;;;;;5409480;26;20028;-81
2024/04/19 00:45:53;;;;;;;6.88;3.80;;;7.50;99.90;;;;;;5403668;26;20010;-78
2024/04/19 00:48:20;;;;;;;6.78;3.53;;;7.60;99.90;;;;;;5410225;26;20007;-80
2024/04/19 00:50:49;;;;;;;6.38;3.42;;;7.70;99.90;;;;;;5409900;26;20004;-78
2024/04/19 00:53:21;;;;;;;7.15;3.83;;;7.90;99.90;;;;;;5413048;26;20076;-79
2024/04/19 00:55:48;;;;;;;5.07;3.30;;;7.70;99.90;;;;;;5407168;26;20000;-79
2024/04/19 00:58:14;;;;;;;7.65;3.60;;;7.50;99.90;;;;;;5411335;26;20082;-79
2024/04/19 01:00:40;;;;;;;6.28;3.72;;;7.70;99.90;;;;;;5410019;26;20047;-81
2024/04/19 01:03:05;;;;;;;6.25;3.42;;;7.40;99.90;;;;;;5414731;26;20479;-81
2024/04/19 01:05:31;;;;;;;6.03;3.65;;;7.60;99.90;;;;;;5411460;26;20003;-80
2024/04/19 01:07:58;;;;;;;5.57;3.70;;;7.60;99.90;;;;;;5414325;26;20010;-80
2024/04/19 01:10:24;;;;;;;7.93;4.45;;;7.70;99.90;;;;;;5404748;26;20008;-80
2024/04/19 01:12:49;;;;;;;7.78;3.95;;;7.50;99.90;;;;;;5405808;26;20004;-80
2024/04/19 01:15:15;;;;;;;7.22;4.13;;;7.40;99.90;;;;;;5415199;26;20002;-78
2024/04/19 01:17:41;;;;;;;9.98;3.72;;;7.60;99.90;;;;;;5415425;26;20003;-82
2024/04/19 01:20:07;;;;;;;6.00;3.53;;;7.60;99.90;;;;;;5416551;26;20000;-82
2024/04/19 01:22:32;;;;;;;6.80;3.75;;;7.40;99.90;;;;;;5412225;26;20549;-79
2024/04/19 01:24:58;;;;;;;7.78;4.25;;;7.50;99.90;;;;;;5414051;26;20483;-79
2024/04/19 01:27:24;;;;;;;6.53;3.70;;;7.40;99.90;;;;;;5405528;26;20014;-78
2024/04/19 01:29:49;;;;;;;5.35;3.78;;;7.30;99.90;;;;;;5409753;26;20007;-79
2024/04/19 01:32:15;;;;;;;7.90;3.83;;;7.20;99.90;;;;;;5411550;26;20492;-79
2024/04/19 01:34:40;;;;;;;5.80;3.50;;;7.20;99.90;;;;;;5414967;26;19992;-79
2024/04/19 01:37:06;;;;;;;6.55;3.80;;;7.10;99.90;;;;;;5410804;26;19992;-80
2024/04/19 01:39:31;;;;;;;6.88;3.67;;;7.30;99.90;;;;;;5412425;26;19996;-78
2024/04/19 01:41:57;;;;;;;5.65;3.50;;;7.10;99.90;;;;;;5413688;26;19995;-79
2024/04/19 01:44:23;;;;;;;11.20;4.07;;;7.30;99.90;;;;;;5409475;26;20010;-79
2024/04/19 01:46:48;;;;;;;7.65;3.90;;;7.40;99.90;;;;;;5409630;26;19999;-79
2024/04/19 01:49:14;;;;;;;6.82;3.55;;;7.30;99.90;;;;;;5410477;26;20008;-82
2024/04/19 01:51:39;;;;;;;5.40;3.75;;;7.20;99.90;;;;;;5412489;26;20105;-81
2024/04/19 01:54:05;;;;;;;9.13;4.95;;;7.00;99.90;;;;;;5411476;26;20484;-79
2024/04/19 01:56:31;;;;;;;8.05;3.97;;;7.10;99.90;;;;;;5412603;26;20010;-78
2024/04/19 01:58:56;;;;;;;8.23;4.00;;;7.10;99.90;;;;;;5413316;26;20011;-81
2024/04/19 02:01:22;;;;;;;5.53;3.72;;;7.20;99.90;;;;;;5436850;26;20039;-79
2024/04/19 02:03:47;;;;;;;6.35;4.00;;;7.00;99.90;;;;;;5413342;26;20460;-81
2024/04/19 02:06:15;;;;;;;7.38;3.72;;;6.90;99.90;;;;;;5413168;26;20451;-79
2024/04/19 02:08:41;;;;;;;5.78;3.63;;;7.00;99.90;;;;;;5407875;26;20010;-79
2024/04/19 02:11:07;;;;;;;8.30;4.25;;;6.90;99.90;;;;;;5411731;26;19996;-81
2024/04/19 02:13:33;;;;;;;7.43;4.50;;;7.10;99.90;;;;;;5407556;26;20012;-78
2024/04/19 02:15:59;;;;;;;7.15;4.07;;;7.20;99.90;;;;;;5412657;26;20040;-81
2024/04/19 02:18:25;;;;;;;5.60;4.05;;;7.20;99.90;;;;;;5440677;26;20015;-81
2024/04/19 02:20:51;;;;;;;8.13;4.40;;;7.30;99.90;;;;;;5413766;26;20003;-78
2024/04/19 02:23:39;;;;;;;8.50;4.32;;;7.40;99.90;;;;;;5413298;26;20000;-81
2024/04/19 02:26:06;;;;;;;6.82;4.20;;;7.30;99.90;;;;;;5400625;26;19999;-79
2024/04/19 02:31:17;;;;;;;8.43;4.60;;;7.10;99.90;;;;;;5411448;26;20094;-81
2024/04/19 02:33:46;;;;;;;7.28;4.00;;;7.20;99.90;;;;;;5408130;26;20418;-79
2024/04/19 02:36:12;;;;;;;5.82;3.78;;;7.20;99.90;;;;;;5413990;26;20000;-78
2024/04/19 02:38:38;;;;;;;8.13;4.63;;;7.40;99.90;;;;;;5408445;26;20036;-82
2024/04/19 02:41:04;;;;;;;6.22;3.90;;;7.20;99.90;;;;;;5410901;26;19995;-81
2024/04/19 02:43:29;;;;;;;10.13;4.45;;;7.30;99.90;;;;;;5412035;26;20037;-82
2024/04/19 02:45:55;;;;;;;6.10;3.80;;;7.20;99.90;;;;;;5413520;26;20003;-78
2024/04/19 02:48:21;;;;;;;6.65;4.40;;;7.40;99.90;;;;;;5409983;26;20073;-79
2024/04/19 02:50:49;;;;;;;8.95;4.10;;;7.50;99.90;;;;;;5415438;26;19994;-80
2024/04/19 02:53:18;;;;;;;8.90;4.07;;;7.40;99.90;;;;;;5411866;26;20010;-80
2024/04/19 02:55:43;;;;;;;6.90;3.60;;;7.30;99.90;;;;;;5412697;26;19999;-78
2024/04/19 02:58:09;;;;;;;7.10;4.35;;;7.30;99.90;;;;;;5410054;26;20013;-79
2024/04/19 03:00:35;;;;;;;5.90;4.28;;;7.00;99.90;;;;;;5413407;26;19999;-78
2024/04/19 03:03:00;;;;;;;7.05;3.90;;;6.80;99.90;;;;;;5410533;26;20469;-78
2024/04/19 03:05:26;;;;;;;8.07;4.53;;;6.90;99.90;;;;;;5411944;26;20018;-81
2024/04/19 03:07:51;;;;;;;7.90;4.47;;;7.00;99.90;;;;;;5410123;26;19999;-81
2024/04/19 03:10:17;;;;;;;8.82;4.20;;;7.00;99.90;;;;;;5441129;26;20004;-81
2024/04/19 03:12:42;;;;;;;7.40;4.38;;;7.00;99.90;;;;;;5411688;26;20014;-81
2024/04/19 03:15:08;;;;;;;6.95;4.30;;;7.00;99.90;;;;;;5414243;26;20007;-78
2024/04/19 03:17:34;;;;;;;7.38;4.25;;;6.90;99.90;;;;;;5411300;26;19996;-80
2024/04/19 03:19:59;;;;;;;8.10;4.82;;;6.80;99.90;;;;;;5407781;26;20007;-78
2024/04/19 03:22:25;;;;;;;11.05;5.18;;;6.70;99.90;;;;;;5411889;26;20449;-78
2024/04/19 03:24:51;;;;;;;6.90;4.60;;;7.00;99.90;;;;;;5411245;26;19996;-79
2024/04/19 03:27:16;;;;;;;11.00;4.93;;;7.00;99.90;;;;;;5412667;26;20011;-80
2024/04/19 03:29:42;;;;;;;8.35;4.75;;;6.90;99.90;;;;;;5411470;26;19992;-79
2024/04/19 03:32:07;;;;;;;7.35;4.50;;;7.20;99.90;;;;;;5412074;26;20014;-78
2024/04/19 03:34:33;;;;;;;9.40;5.05;;;6.90;99.90;;;;;;5408505;26;20006;-78
2024/04/19 03:36:58;;;;;;;9.43;4.13;;;6.90;99.90;;;;;;5402805;26;20364;-80
2024/04/19 03:39:24;;;;;;;7.35;4.20;;;7.00;99.90;;;;;;5409689;26;20342;-79
2024/04/19 03:41:51;;;;;;;10.02;4.43;;;6.90;99.90;;;;;;5409861;26;20014;-79
2024/04/19 03:47:01;;;;;;;7.28;4.38;;;7.10;99.90;;;;;;5412921;26;20088;-80
2024/04/19 03:49:27;;;;;;;8.38;4.63;;;7.00;99.90;;;;;;5411680;26;20008;-81
2024/04/19 03:51:55;;;;;;;8.13;4.72;;;7.10;99.90;;;;;;5437876;26;20011;-79
2024/04/19 03:54:20;;;;;;;10.68;5.65;;;7.10;99.90;;;;;;5419203;26;20027;-79
2024/04/19 03:56:46;;;;;;;7.78;4.60;;;7.10;99.90;;;;;;5412613;26;19995;-80
2024/04/19 03:59:11;;;;;;;6.97;4.30;;;7.00;99.90;;;;;;5412682;26;20011;-81
2024/04/19 04:01:37;;;;;;;11.23;4.47;;;6.90;99.90;;;;;;5412373;26;19999;-80
2024/04/19 04:04:03;;;;;;;10.13;5.13;;;6.90;99.90;;;;;;5412351;26;20016;-78
2024/04/19 04:06:28;;;;;;;11.45;4.80;;;6.90;99.90;;;;;;5408882;26;20027;-78
2024/04/19 04:08:54;;;;;;;9.48;5.13;;;6.90;99.90;;;;;;5410529;26;19996;-80
2024/04/19 04:11:19;;;;;;;8.27;5.00;;;6.80;99.90;;;;;;5409675;26;20076;-78
2024/04/19 04:13:45;;;;;;;10.13;5.05;;;6.80;99.90;;;;;;5412615;26;20007;-80
2024/04/19 04:16:10;;;;;;;10.68;5.70;;;7.00;99.90;;;;;;5412561;26;19999;-78
2024/04/19 04:18:36;;;;;;;10.02;5.95;;;6.80;99.90;;;;;;5411895;26;20007;-81
2024/04/19 04:21:02;;;;;;;12.23;5.07;;;6.90;99.90;;;;;;5411343;26;20550;-78
2024/04/19 04:23:31;;;;;;;10.20;4.47;;;7.10;99.90;;;;;;5411520;26;19999;-81
2024/04/19 04:25:58;;;;;;;9.05;5.10;;;7.10;99.90;;;;;;5409057;26;20011;-81
2024/04/19 04:28:24;;;;;;;9.02;5.13;;;7.00;99.90;;;;;;5415334;26;20004;-78
2024/04/19 04:30:50;;;;;;;7.90;4.85;;;7.10;99.90;;;;;;5413320;26;20058;-78
2024/04/19 04:33:18;;;;;;;10.18;5.13;;;7.20;99.90;;;;;;5415346;26;20015;-81
2024/04/19 04:35:44;;;;;;;9.80;4.97;;;7.20;99.90;;;;;;5415373;26;20904;-78
2024/04/19 04:38:10;;;;;;;12.18;4.97;;;7.10;99.90;;;;;;5415775;26;20014;-78
2024/04/19 04:40:36;;;;;;;8.15;4.93;;;7.40;99.90;;;;;;5409440;26;20005;-78
2024/04/19 04:43:02;;;;;;;9.88;5.10;;;7.20;99.90;;;;;;5413410;26;20003;-82
2024/04/19 04:45:28;;;;;;;9.02;5.28;;;7.10;99.90;;;;;;5415682;26;19999;-81
2024/04/19 04:47:54;;;;;;;8.52;5.28;;;7.00;99.90;;;;;;5415280;26;20023;-79
2024/04/19 04:50:20;;;;;;;7.55;4.82;;;7.20;99.90;;;;;;5414721;26;20015;-79
2024/04/19 04:52:46;;;;;;;12.35;5.03;;;7.10;99.90;;;;;;5404278;26;20014;-80
2024/04/19 04:55:14;;;;;;;8.63;4.60;;;7.10;99.90;;;;;;5412329;26;20009;-78
2024/04/19 04:57:40;;;;;;;10.77;5.45;;;7.10;99.90;;;;;;5406059;26;20022;-79
2024/04/19 05:00:06;;;;;;;9.73;5.15;;;7.30;99.90;;;;;;5414613;26;20000;-80
2024/04/19 05:02:33;;;;;;;10.30;5.93;;;7.20;99.90;;;;;;5410028;26;20011;-79
2024/04/19 05:04:59;;;;;;;8.90;5.05;;;7.20;99.90;;;;;;5412574;26;19995;-80
2024/04/19 05:07:25;;;;;;;10.70;5.45;;;7.00;99.90;;;;;;5414876;26;20484;-78
2024/04/19 05:09:51;;;;;;;14.55;5.60;;;6.80;99.90;;;;;;5414810;26;19996;-80
2024/04/19 05:12:17;;;;;;;9.40;5.10;;;7.00;99.90;;;;;;5411764;26;20007;-82
2024/04/19 05:14:42;;;;;;;8.45;4.82;;;6.90;99.90;;;;;;5412169;26;20003;-78
2024/04/19 05:17:08;;;;;;;8.63;5.30;;;7.20;99.90;;;;;;5416403;26;20007;-80
2024/04/19 05:19:34;;;;;;;12.15;5.68;;;7.50;99.90;;;;;;5402784;26;20006;-81
2024/04/19 05:21:59;;;;;;;11.13;4.82;;;7.50;99.90;;;;;;5408781;26;19999;-79
2024/04/19 05:24:25;;;;;;;9.07;5.10;;;7.40;99.90;;;;;;5405146;26;20450;-79
2024/04/19 05:26:51;;;;;;;10.13;5.38;;;7.20;99.90;;;;;;5415597;26;19996;-81
2024/04/19 05:29:17;;;;;;;13.27;6.20;;;7.20;99.90;;;;;;5407509;26;20397;-80
2024/04/19 05:31:43;;;;;;;9.75;5.25;;;7.30;99.90;;;;;;5419665;26;20013;-79
2024/04/19 05:34:08;;;;;;;8.60;5.20;;;7.50;99.90;;;;;;5411912;26;20479;-79
2024/04/19 05:36:34;;;;;;;9.43;5.25;;;7.50;99.90;;;;;;5410385;26;20482;-78
2024/04/19 05:38:59;;;;;;;11.60;5.03;;;7.30;99.90;;;;;;5421703;26;20003;-81
2024/04/19 05:41:25;;;;;;;8.85;4.47;;;7.30;99.90;;;;;;5406944;26;20000;-78
2024/04/19 05:43:50;;;;;;;9.85;5.32;;;7.50;99.90;;;;;;5409143;26;20537;-78
2024/04/19 05:46:16;;;;;;;11.38;5.22;;;7.60;99.90;;;;;;5446443;26;20628;-81
2024/04/19 05:48:41;;;;;;;8.60;4.88;;;7.50;99.90;;;;;;5415383;26;20449;-80
2024/04/19 05:51:07;;;;;;;10.88;5.07;;;7.40;99.90;;;;;;5422110;26;20014;-80
2024/04/19 05:53:32;;;;;;;10.70;5.30;;;7.60;99.90;;;;;;5424663;26;20100;-80
2024/04/19 05:55:58;;;;;;;7.60;4.75;;;7.60;99.90;;;;;;5418383;26;20032;-80
2024/04/19 05:58:24;;;;;;;9.32;5.03;;;7.60;99.90;;;;;;5418366;26;20004;-78
2024/04/19 06:00:50;;;;;;;7.95;4.95;;;7.70;99.90;;;;;;5404676;26;20078;-78
2024/04/19 06:03:15;;;;;;;10.68;5.25;;;7.50;99.90;;;;;;5415778;26;20015;-78
2024/04/19 06:05:43;;;;;;;9.05;5.38;;;7.40;99.90;;;;;;5416013;26;20142;-81
2024/04/19 06:08:11;;;;;;;10.13;5.03;;;7.50;99.90;;;;;;5411153;26;20084;-81
2024/04/19 06:10:36;;;;;;;13.20;5.80;;;7.60;99.90;;;;;;5421644;26;20014;-81
2024/04/19 06:13:02;;;;;;;9.85;5.25;;;7.60;99.90;;;;;;5409615;26;20521;-80
2024/04/19 06:15:27;;;;;;;12.68;5.93;;;7.60;99.90;;;;;;5418725;26;20022;-79
2024/04/19 06:17:53;;;;;;;12.02;4.90;;;7.60;99.90;;;;;;5414597;26;20027;-79
2024/04/19 06:20:18;;;;;;;9.00;5.13;;;7.60;99.90;;;;;;5407310;26;20007;-81
2024/04/19 06:22:44;;;;;;;10.45;4.75;;;7.60;99.90;;;;;;5403892;26;20322;-79
2024/04/19 06:25:10;;;;;;;9.10;5.13;;;7.60;99.90;;;;;;5414805;26;19996;-79
2024/04/19 06:27:36;;;;;;;11.13;5.13;;;7.70;99.90;;;;;;5438213;26;20097;-79
2024/04/19 06:30:01;;;;;;;9.63;4.97;;;7.60;99.90;;;;;;5435219;26;19996;-80
2024/04/19 06:32:27;;;;;;;10.30;5.15;;;7.70;99.90;;;;;;5398229;26;20350;-81
2024/04/19 06:34:52;;;;;;;8.75;5.18;;;7.80;99.90;;;;;;5408328;26;20352;-78
2024/04/19 06:37:18;;;;;;;11.40;6.35;;;7.70;99.90;;;;;;5412075;26;21616;-81
2024/04/19 06:39:43;;;;;;;11.13;5.35;;;7.60;99.90;;;;;;5413481;26;20486;-80
2024/04/19 06:42:09;;;;;;;11.38;5.68;;;7.70;99.90;;;;;;5415233;26;20352;-81
2024/04/19 06:44:34;;;;;;;11.63;5.95;;;7.80;99.90;;;;;;5408465;26;20574;-78
2024/04/19 06:47:00;;;;;;;12.77;5.90;;;7.90;99.90;;;;;;5406649;26;20000;-80
2024/04/19 06:49:25;;;;;;;12.10;5.57;;;7.80;99.90;;;;;;5411421;26;19999;-80
2024/04/19 06:51:51;;;;;;;10.35;5.60;;;7.80;99.90;;;;;;5413233;26;20074;-78
2024/04/19 06:54:17;;;;;;;11.00;5.72;;;7.80;99.90;;;;;;5413416;26;20064;-79
2024/04/19 06:56:42;;;;;;;14.15;5.75;;;7.90;99.90;;;;;;5412867;26;20383;-78
2024/04/19 06:59:09;;;;;;;10.02;5.10;;;7.80;99.90;;;;;;5411592;26;20464;-78
2024/04/19 07:01:37;;;;;;;12.25;6.28;;;7.80;99.90;;;;;;5413291;26;20000;-79
2024/04/19 07:04:02;;;;;;;9.43;5.35;;;7.80;99.90;;;;;;5413649;26;20003;-78
2024/04/19 07:06:28;;;;;;;10.98;5.43;;;7.80;99.90;;;;;;5440777;26;20077;-78
2024/04/19 07:08:54;;;;;;;9.02;5.95;;;7.90;99.90;;;;;;5412754;26;19999;-78
2024/04/19 07:11:19;;;;;;;13.20;5.75;;;8.00;99.90;;;;;;5412536;26;20004;-81
2024/04/19 07:13:46;;;;;;;9.57;5.25;;;8.00;99.90;;;;;;5417409;26;20011;-78
2024/04/19 07:16:13;;;;;;;12.27;5.68;;;8.00;99.90;;;;;;5411952;26;20004;-81
2024/04/19 07:18:38;;;;;;;19.58;6.35;;;8.00;99.90;;;;;;5413180;26;19992;-81
2024/04/19 07:21:04;;;;;;;13.25;5.97;;;8.00;99.90;;;;;;5410371;26;19999;-79
2024/04/19 07:23:29;;;;;;;13.82;6.55;;;7.80;99.90;;;;;;5413151;26;20541;-79
2024/04/19 07:25:55;;;;;;;13.40;6.32;;;8.00;99.90;;;;;;5413008;26;19995;-81
2024/04/19 07:28:20;;;;;;;10.75;5.38;;;8.00;99.90;;;;;;5419357;26;20006;-79
2024/04/19 07:30:46;;;;;;;10.23;5.68;;;7.90;99.90;;;;;;5408268;26;20021;-82
2024/04/19 07:33:11;;;;;;;12.00;6.15;;;8.10;99.90;;;;;;5441121;26;20072;-81
2024/04/19 07:35:37;;;;;;;14.32;6.15;;;8.00;99.90;;;;;;5408990;26;20196;-79
2024/04/19 07:38:03;;;;;;;12.35;6.13;;;8.20;99.90;;;;;;5413175;26;20344;-79
2024/04/19 07:40:29;;;;;;;12.43;5.80;;;8.10;99.90;;;;;;5411818;26;20456;-79
2024/04/19 07:42:55;;;;;;;12.15;6.55;;;8.20;99.90;;;;;;5412050;26;20096;-80
2024/04/19 07:45:23;;;;;;;10.35;5.32;;;8.30;99.90;;;;;;5436470;26;20332;-79
2024/04/19 07:47:53;;;;;;;12.25;6.57;;;8.30;99.90;;;;;;5410983;26;19999;-81
2024/04/19 07:50:18;;;;;;;11.10;5.68;;;8.50;99.90;;;;;;5406265;26;20558;-79
2024/04/19 07:52:47;;;;;;;10.93;5.20;;;8.40;99.90;;;;;;5412021;26;20003;-78
2024/04/19 07:55:12;;;;;;;10.48;5.15;;;8.50;99.90;;;;;;5411005;26;20003;-80
2024/04/19 07:57:38;;;;;;;10.90;5.30;;;8.50;99.90;;;;;;5440035;26;20003;-81
2024/04/19 08:00:06;;;;;;;11.65;5.43;;;8.50;99.90;;;;;;5408455;26;20012;-78
2024/04/19 08:02:32;;;;;;;9.20;4.72;;;8.50;99.90;;;;;;5409703;26;20015;-81
2024/04/19 08:04:57;;;;;;;9.32;4.38;;;8.60;99.90;;;;;;5411238;26;20008;-79
2024/04/19 08:07:26;;;;;;;7.93;4.78;;;8.70;99.90;;;;;;5412411;26;20407;-79
2024/04/19 08:09:53;;;;;;;8.23;4.97;;;8.60;99.90;;;;;;5410010;26;19995;-79
2024/04/19 08:12:18;;;;;;;9.50;4.68;;;8.70;99.90;;;;;;5410241;26;20356;-78
2024/04/19 08:14:44;;;;;;;15.48;4.70;;;8.70;99.90;;;;;;5412065;26;20007;-79
2024/04/19 08:17:09;;;;;;;9.63;4.80;;;8.50;99.90;;;;;;5406559;26;19999;-81
2024/04/19 08:19:35;;;;;;;14.10;4.90;;;8.50;99.90;;;;;;5403216;26;20450;-79
2024/04/19 08:22:00;;;;;;;12.30;5.43;;;8.60;99.90;;;;;;5410275;26;20011;-79
2024/04/19 08:24:27;;;;;;;11.52;5.28;;;8.60;99.90;;;;;;5409943;26;19995;-80
2024/04/19 08:26:53;;;;;;;7.40;4.22;;;8.70;99.90;;;;;;5410814;26;20529;-79
2024/04/19 08:29:18;;;;;;;9.13;4.93;;;8.50;99.90;;;;;;5410726;26;20007;-80
2024/04/19 08:31:44;;;;;;;7.57;4.22;;;8.30;99.90;;;;;;5435174;26;19999;-78
2024/04/19 08:34:09;;;;;;;13.23;5.38;;;8.30;99.90;;;;;;5440378;26;19999;-81
2024/04/19 08:36:35;;;;;;;11.40;5.47;;;8.30;99.90;;;;;;5411711;26;20004;-79
2024/04/19 08:39:00;;;;;;;11.80;5.25;;;8.50;99.90;;;;;;5438770;26;20421;-81
2024/04/19 08:41:30;;;;;;;10.43;5.03;;;8.30;99.90;;;;;;5408958;26;20010;-81
2024/04/19 08:43:59;;;;;;;7.67;4.43;;;8.40;99.90;;;;;;5438526;26;19999;-79
2024/04/19 08:46:30;;;;;;;10.57;4.90;;;8.50;99.90;;;;;;5405416;26;19992;-82
2024/04/19 08:48:56;;;;;;;10.63;5.65;;;8.40;99.90;;;;;;5436504;26;20000;-79
2024/04/19 08:51:23;;;;;;;8.77;4.57;;;8.60;99.90;;;;;;5410935;26;20068;-79
2024/04/19 08:53:51;;;;;;;9.73;4.60;;;8.50;99.90;;;;;;5409827;26;20755;-80
2024/04/19 08:56:17;;;;;;;9.52;5.07;;;8.30;99.90;;;;;;5410384;26;20014;-81
2024/04/19 08:58:42;;;;;;;10.07;5.18;;;8.30;99.90;;;;;;5411144;26;20447;-79
2024/04/19 09:01:08;;;;;;;13.60;5.47;;;8.40;99.90;;;;;;5404642;26;20405;-79
2024/04/19 09:03:34;;;;;;;11.18;5.32;;;8.30;99.90;;;;;;5410395;26;20025;-78
2024/04/19 09:05:59;;;;;;;8.50;4.65;;;8.30;99.90;;;;;;5403753;26;20011;-80
2024/04/19 09:08:25;;;;;;;9.38;4.50;;;8.20;99.90;;;;;;5406570;26;19995;-78
2024/04/19 09:10:51;;;;;;;12.57;5.18;;;8.10;99.90;;;;;;5414013;26;20052;-80
2024/04/19 09:13:17;;;;;;;8.45;4.40;;;8.00;99.90;;;;;;5414298;26;20488;-85
2024/04/19 09:15:46;;;;;;;11.35;4.88;;;8.00;99.90;;;;;;5411437;26;20482;-82
2024/04/19 09:18:11;;;;;;;10.77;4.65;;;8.10;99.90;;;;;;5412340;26;20064;-85
2024/04/19 09:20:44;;;;;;;8.65;4.68;;;8.10;99.90;;;;;;5411634;26;20007;-84
2024/04/19 09:23:10;;;;;;;8.63;4.78;;;8.10;99.90;;;;;;5414476;26;20033;-84
2024/04/19 09:25:38;;;;;;;8.65;4.65;;;8.10;99.90;;;;;;5408878;26;20007;-83
2024/04/19 09:28:05;;;;;;;8.52;4.32;;;8.30;99.90;;;;;;5415006;26;20018;-85
2024/04/19 09:30:31;;;;;;;8.48;4.60;;;8.30;99.90;;;;;;5419668;26;20494;-86
2024/04/19 09:32:57;;;;;;;10.77;4.53;;;8.10;99.90;;;;;;5409289;26;19999;-84
2024/04/19 09:35:27;;;;;;;9.73;4.78;;;8.30;99.90;;;;;;5440851;26;20010;-82
2024/04/19 09:37:53;;;;;;;;;;;8.20;99.90;;;;;;5414199;26;20484;-82
2024/04/19 09:40:25;;;;;;;6.53;3.83;;;8.10;99.90;;;;;;5413279;26;20355;-84
2024/04/19 09:42:51;;;;;;;6.60;3.90;;;8.20;99.90;;;;;;5413606;26;19999;-85
2024/04/19 09:45:21;;;;;;;8.52;4.13;;;8.10;99.90;;;;;;5407533;26;20023;-84
2024/04/19 09:47:51;;;;;;;6.80;4.03;;;8.00;99.90;;;;;;5408316;26;20072;-84
2024/04/19 09:50:21;;;;;;;11.20;4.10;;;8.10;99.90;;;;;;5399584;26;20008;-84
2024/04/19 09:52:53;;;;;;;5.57;3.97;;;8.10;99.90;;;;;;5415180;26;19996;-85
2024/04/19 09:55:28;;;;;;;5.78;3.83;;;8.00;99.90;;;;;;5443103;26;20010;-84
2024/04/19 09:57:55;;;;;;;6.55;4.03;;;8.00;99.90;;;;;;5446770;26;20073;-82
2024/04/19 10:00:28;;;;;;;6.10;3.72;;;7.90;99.90;;;;;;5411571;26;19996;-83
2024/04/19 10:02:55;;;;;;;7.72;4.07;;;7.80;99.90;;;;;;5431841;26;20004;-84
2024/04/19 10:05:21;;;;;;;6.97;4.07;;;7.90;99.90;;;;;;5412412;26;20029;-84
2024/04/19 10:07:47;;;;;;;6.95;3.72;;;7.90;99.90;;;;;;5406463;26;20010;-85
2024/04/19 10:10:13;;;;;;;6.60;3.65;;;8.00;99.90;;;;;;5412872;26;20000;-81
2024/04/19 10:12:39;;;;;;;7.40;3.75;;;7.90;99.90;;;;;;5411103;26;19996;-82
2024/04/19 10:15:10;;;;;;;7.85;3.85;;;8.10;99.90;;;;;;5410860;26;19999;-83
2024/04/19 10:17:35;;;;;;;5.47;3.50;;;8.00;99.90;;;;;;5407788;26;20464;-79
2024/04/19 10:20:03;;;;;;;6.15;3.63;;;7.80;99.90;;;;;;5414771;26;20009;-79
2024/04/19 10:22:29;;;;;;;7.40;4.20;;;7.80;99.90;;;;;;5422929;26;20007;-83
2024/04/19 10:25:01;;;;;;;6.05;3.15;;;8.00;99.90;;;;;;5418526;26;19992;-80
2024/04/19 10:27:28;;;;;;;7.20;3.75;;;7.90;99.90;;;;;;5409252;26;20018;-81
2024/04/19 10:29:54;;;;;;;7.10;3.97;;;8.00;99.90;;;;;;5412795;26;20080;-80
2024/04/19 10:32:19;;;;;;;11.00;4.07;;;8.10;99.90;;;;;;5410499;26;20456;-81
2024/04/19 10:34:45;;;;;;;6.15;3.83;;;8.00;99.90;;;;;;5410486;26;20007;-80
2024/04/19 10:37:12;;;;;;;10.40;3.60;;;7.80;99.90;;;;;;5411307;26;20006;-82
2024/04/19 10:39:37;;;;;;;7.93;4.07;;;7.60;99.90;;;;;;5438444;26;20015;-82
2024/04/19 10:42:03;;;;;;;8.20;4.13;;;7.60;99.90;;;;;;5414848;26;20069;-81
2024/04/19 10:44:31;;;;;;;6.97;4.10;;;7.50;99.90;;;;;;5411320;26;20076;-83
2024/04/19 10:46:57;;;;;;;7.75;4.28;;;7.80;99.90;;;;;;5437552;26;20361;-80
2024/04/19 10:49:24;;;;;;;7.22;3.80;;;8.00;99.90;;;;;;5410603;26;20003;-83
2024/04/19 10:51:51;;;;;;;8.18;3.72;;;7.90;99.90;;;;;;5405822;26;20398;-82
2024/04/19 10:54:17;;;;;;;7.80;4.03;;;7.80;99.90;;;;;;5420479;26;20457;-82
2024/04/19 10:56:43;;;;;;;11.02;4.30;;;7.90;99.90;;;;;;5441014;26;20340;-83
2024/04/19 10:59:08;;;;;;;7.45;4.10;;;7.60;99.90;;;;;;5406712;26;20032;-80
2024/04/19 11:01:38;;;;;;;8.80;4.40;;;7.60;99.90;;;;;;5407066;26;19996;-82
2024/04/19 11:04:04;;;;;;;7.85;4.05;;;7.70;99.90;;;;;;5404006;26;20018;-80
2024/04/19 11:06:29;;;;;;;7.65;4.07;;;7.70;99.90;;;;;;5410631;26;20008;-81
2024/04/19 11:08:55;;;;;;;8.80;4.22;;;7.60;99.90;;;;;;5410360;26;20072;-83
2024/04/19 11:11:21;;;;;;;7.55;4.05;;;7.70;99.90;;;;;;5411922;26;20338;-83
2024/04/19 11:13:47;;;;;;;8.52;4.28;;;7.60;99.90;;;;;;5416789;26;20062;-84
2024/04/19 11:16:12;;;;;;;12.63;4.68;;;7.60;99.90;;;;;;5403718;26;20018;-83
2024/04/19 11:18:38;;;;;;;5.85;3.42;;;7.70;99.90;;;;;;5430980;26;20018;-82
2024/04/19 11:21:04;;;;;;;6.57;4.07;;;7.50;99.90;;;;;;5412634;26;19999;-80
2024/04/19 11:23:30;;;;;;;8.40;4.32;;;7.50;99.90;;;;;;5411422;26;20101;-81
2024/04/19 11:25:56;;;;;;;10.25;4.68;;;7.50;99.90;;;;;;5412294;26;20000;-82
2024/04/19 11:28:22;;;;;;;12.15;4.55;;;7.60;99.90;;;;;;5413143;26;20027;-81
2024/04/19 11:30:47;;;;;;;7.18;3.47;;;7.70;99.90;;;;;;5412742;26;19999;-83
2024/04/19 11:33:13;;;;;;;6.68;3.60;;;7.60;99.90;;;;;;5405426;26;20348;-82
2024/04/19 11:35:41;;;;;;;7.50;4.22;;;7.50;99.90;;;;;;5407881;26;20457;-81
2024/04/19 11:38:06;;;;;;;13.98;5.03;;;7.50;99.90;;;;;;5441011;26;20345;-83
2024/04/19 11:40:32;;;;;;;8.73;4.47;;;7.50;99.90;;;;;;5409129;26;20000;-81
2024/04/19 11:42:57;;;;;;;5.90;3.53;;;7.60;99.90;;;;;;5408512;26;20000;-83
2024/04/19 11:45:23;;;;;;;7.85;3.70;;;7.60;99.90;;;;;;5410453;26;20018;-81
2024/04/19 11:47:52;;;;;;;6.47;3.20;;;7.60;99.90;;;;;;5407517;26;19999;-83
2024/04/19 11:50:23;;;;;;;6.25;3.10;;;7.40;99.90;;;;;;5409344;26;20476;-83
2024/04/19 11:52:49;;;;;;;6.38;3.20;;;7.50;99.90;;;;;;5411096;26;20533;-83
2024/04/19 11:55:14;;;;;;;5.68;3.20;;;7.50;99.90;;;;;;5410449;26;20011;-83
2024/04/19 11:57:41;;;;;;;4.80;2.92;;;7.40;99.90;;;;;;5410130;26;20018;-83
2024/04/19 12:00:07;;;;;;;5.20;3.15;;;7.30;99.90;;;;;;5405010;26;20099;-83
2024/04/19 12:02:33;;;;;;;5.30;3.42;;;7.30;99.90;;;;;;5409828;26;20011;-83
2024/04/19 12:04:58;;;;;;;5.82;3.15;;;7.40;99.90;;;;;;5405729;26;20000;-83
2024/04/19 12:07:24;;;;;;;5.38;3.15;;;7.40;99.90;;;;;;5403363;26;20810;-82
2024/04/19 12:09:49;;;;;;;5.50;2.90;;;7.40;99.90;;;;;;5403662;26;19999;-83
2024/04/19 12:12:19;;;;;;;5.20;3.15;;;7.30;99.90;;;;;;5400503;26;20472;-82
2024/04/19 12:14:45;;;;;;;4.30;2.83;;;7.40;99.90;;;;;;5399362;26;20461;-83
2024/04/19 12:17:11;;;;;;;4.38;3.10;;;7.30;99.90;;;;;;5397437;26;20012;-83
2024/04/19 12:19:37;;;;;;;5.70;3.38;;;7.20;99.90;;;;;;5410570;26;20053;-82
2024/04/19 12:22:02;;;;;;;4.15;2.58;;;7.30;99.90;;;;;;5404914;26;20004;-82
2024/04/19 12:24:34;;;;;;;5.30;2.85;;;7.20;99.90;;;;;;5406005;26;20042;-81
2024/04/19 12:27:02;;;;;;;7.50;2.85;;;7.20;99.90;;;;;;5410802;26;20015;-83
2024/04/19 12:29:28;;;;;;;4.38;3.05;;;7.30;99.90;;;;;;5404906;26;20396;-81
2024/04/19 12:31:55;;;;;;;5.38;2.90;;;7.20;99.90;;;;;;5408497;26;20054;-82
2024/04/19 12:34:20;;;;;;;6.80;3.08;;;7.20;99.90;;;;;;5407145;26;19996;-82
2024/04/19 12:36:48;;;;;;;4.65;2.70;;;7.30;99.90;;;;;;5411418;26;20512;-83
2024/04/19 12:39:14;;;;;;;7.70;3.00;;;7.20;99.90;;;;;;5410261;26;19995;-82
2024/04/19 12:41:39;;;;;;;4.53;2.97;;;7.20;99.90;;;;;;5404490;26;20023;-82
2024/04/19 12:44:05;;;;;;;3.90;2.17;;;7.20;99.90;;;;;;5407302;26;19996;-83
2024/04/19 12:46:30;;;;;;;3.83;2.63;;;7.10;99.90;;;;;;5408780;26;20062;-82
2024/04/19 12:49:06;;;;;;;4.97;3.08;;;7.10;99.90;;;;;;5406546;26;20867;-83
2024/04/19 12:51:33;;;;;;;6.43;2.72;;;7.10;99.90;;;;;;5412873;26;20345;-82
2024/04/19 12:53:59;;;;;;;6.97;2.53;;;7.20;99.90;;;;;;5402770;26;20015;-83
2024/04/19 12:56:24;;;;;;;5.82;3.03;;;7.20;99.90;;;;;;5410400;26;20375;-83